Main page
METAR-TAF:

METAR-TAF

Airports :

Srinagar International Airport

Srinagar, India

latitude: 33-59-14N, longitude: 074-46-27E, elevation: 1655 m

Current weather observation

The report was made 47 minutes ago, at 13:30 UTC
Wind 3 kt from the West/Southwest
Temperature 21°C
Humidity 64%
Pressure 1012 hPa
Visibility: 5000 m
Few clouds at a height of 2500 ft
smoke

METAR: VISR 211330Z 24003KT 5000 FU FEW025 21/14 Q1012 NOSIG

Time: 19:47 (14:17 UTC)

Forecast

The report was made 4 hours and 47 minutes ago, at 09:30 UTC
Forecast valid from 21 at 12 UTC to 21 at 24 UTC
Wind 2 kt from variable directions
Visibility: 6000 m
Few clouds at a height of 3000 ft

TAF: VISR 210930Z 2112/2124 VRB02KT 6000 FEW030

Weather observations and forecasts of more than 4000 airports (METAR and TAF reports).

The available stations are represented by yellow and red dots on the map.

Hover mouse over dot to see the name of the station.

Then click to see weather observations and forecasts.

To change the map : click on the green buttons with a black cross to zoom in, on the green button with a dash to zoom out, or on the green arrows for adjacent maps.


METAR-TAF: